Airfield :
LOGIN :

Register | Disclaimer

   EN    FR    IT 

 










Legend :    VFR   Marginal VFR   IFR   Intensive IFR   Very Intensive IFR
Visi :
Ceiling :
>= 8 km
>= 3000ft
5 to 8 km
1000 to 3000 ft
1500m to 5 km
500 to 1000 ft
800 to 1500m
200 to 500 ft
< 800m
< 200 ft
Symbols :   Thunderstorms  Fog  Heavy snow  Heavy precipitations  Wind > 20 kt
SIGMETs :     Misc.  Thunderstorms  Icing  Turbulence  Mountain Waves  Volcanic Ashes







- Airport Elevation : 3 ft
- IATA code : LWR


EHLW - Leuuwarden Air Base

CURRENT METAR :
  • 190455Z AUTO 07013KT 360V120 9999 SCT029 OVC033 06/03 Q1027 BLU

EXPIRED METARs :
  • 190425Z AUTO 07013KT 350V130 9999 FEW029 BKN033 OVC037 06/03 Q1027 BLU
  • 190355Z AUTO 07014KT 020V120 9999 FEW030 BKN034 OVC041 06/03 Q1027 BLU
  • 190325Z AUTO 07012KT 360V140 9999 SCT036 OVC041 06/03 Q1027 BLU
  • 190255Z AUTO 07012KT 010V140 9999 BKN040 BKN045 OVC170 05/03 Q1027 BLU
  • 190225Z AUTO 06013KT 360V110 9999 FEW038 OVC170 05/03 Q1027 BLU

TAF TAF EHLW
Valid from the 19 at 01:00 until the 19 at 13:00 UTC


190040Z 1901/1913 07013KT 9999 SCT015 BKN025
PROB30
TEMPO 1902/1908 BKN012
BECMG 1908/1910 07015G25KT
No reported NOTAMs for that airfield.



MET'MAP, your aeronautical weather chart ! - Copyright ORBIFLY December 2007 - Disclaimer

ORBIFLY MET'MAP TEAM :

Programming & Development : Alexandra Zaïnal
Concept & Development : Baudouin d'Aumeries
Co-Development & Prog : Marc-Olivier Méhu
Technical & hardware support : Manuel Goepfert

Contact : metmap@orbifly.com




SOURCES & CREDITS :

   NOAA